createdAt,value
2019-05-03T00:01:30.155Z,42.30
2019-05-03T00:03:56.342Z,42.20
2019-05-03T00:06:22.696Z,42.10
2019-05-03T00:08:48.722Z,42.30
2019-05-03T00:11:14.867Z,42.30
2019-05-03T00:13:41.922Z,42.40
2019-05-03T00:16:07.225Z,43.00
2019-05-03T00:18:33.553Z,42.30
2019-05-03T00:20:59.716Z,42.20
2019-05-03T00:23:25.865Z,42.30
2019-05-03T00:25:52.418Z,42.20
2019-05-03T00:28:18.209Z,42.20
2019-05-03T00:30:44.382Z,42.10
2019-05-03T00:33:11.778Z,42.30
2019-05-03T00:35:36.758Z,42.20
2019-05-03T00:38:02.923Z,42.20
2019-05-03T00:40:29.085Z,42.30
2019-05-03T00:42:55.248Z,42.30
2019-05-03T00:45:22.071Z,42.20
2019-05-03T00:47:47.611Z,42.10
2019-05-03T00:50:13.777Z,42.20
2019-05-03T00:52:39.945Z,42.20
2019-05-03T00:55:15.764Z,42.10
2019-05-03T00:57:32.513Z,42.30
2019-05-03T00:59:58.524Z,42.30
2019-05-03T01:02:26.367Z,42.10
2019-05-03T01:04:52.929Z,42.10
2019-05-03T01:07:19.084Z,42.10
2019-05-03T01:09:45.265Z,42.20
2019-05-03T01:12:12.630Z,42.20
2019-05-03T01:14:37.653Z,42.10
2019-05-03T01:17:03.805Z,42.10
2019-05-03T01:19:31.942Z,42.00
2019-05-03T01:21:56.165Z,42.10
2019-05-03T01:24:22.308Z,42.00
2019-05-03T01:26:48.453Z,42.10
2019-05-03T01:29:14.605Z,42.00
2019-05-03T01:31:42.155Z,42.00
2019-05-03T01:34:06.956Z,42.10
2019-05-03T01:36:33.110Z,42.00
2019-05-03T01:38:59.270Z,42.10
2019-05-03T01:41:25.426Z,42.10
2019-05-03T01:43:52.590Z,42.10
2019-05-03T01:46:17.810Z,42.10
2019-05-03T01:48:43.973Z,42.10
2019-05-03T01:51:11.753Z,42.00
2019-05-03T01:53:36.331Z,42.10
2019-05-03T01:56:03.713Z,42.00
2019-05-03T01:58:29.446Z,42.00
2019-05-03T02:00:55.640Z,42.10
2019-05-03T02:03:21.939Z,42.00
2019-05-03T02:05:48.091Z,42.10
2019-05-03T02:08:14.248Z,42.00
2019-05-03T02:10:40.398Z,42.00
2019-05-03T02:13:06.554Z,42.00
2019-05-03T02:15:33.506Z,42.00
2019-05-03T02:17:59.656Z,42.00
2019-05-03T02:20:25.806Z,42.00
2019-05-03T02:22:52.270Z,42.00
2019-05-03T02:25:18.178Z,41.90
2019-05-03T02:27:44.349Z,42.00
2019-05-03T02:30:13.707Z,41.90
2019-05-03T02:32:37.494Z,42.00
2019-05-03T02:35:03.677Z,42.00
2019-05-03T02:37:32.866Z,41.90
2019-05-03T02:39:56.024Z,42.00
2019-05-03T02:42:22.194Z,42.00
2019-05-03T02:44:48.356Z,41.90
2019-05-03T02:47:15.904Z,41.90
2019-05-03T02:49:40.871Z,41.90
2019-05-03T02:52:07.049Z,42.00
2019-05-03T02:54:35.257Z,41.80
2019-05-03T02:56:59.421Z,42.00
2019-05-03T02:59:26.421Z,41.90
2019-05-03T03:01:51.786Z,41.80
2019-05-03T03:04:17.941Z,41.90
2019-05-03T03:06:45.412Z,42.00
2019-05-03T03:09:10.306Z,41.90
2019-05-03T03:11:36.448Z,41.80
2019-05-03T03:14:02.605Z,42.00
2019-05-03T03:16:28.762Z,41.90
2019-05-03T03:18:55.841Z,42.00
2019-05-03T03:21:21.116Z,42.00
2019-05-03T03:23:47.273Z,42.00
2019-05-03T03:26:15.576Z,42.00
2019-05-03T03:28:39.633Z,41.80
2019-05-03T03:31:08.335Z,41.80
2019-05-03T03:33:31.999Z,41.90
2019-05-03T03:36:27.332Z,41.80
2019-05-03T03:38:26.059Z,41.90
2019-05-03T03:40:50.527Z,41.90
2019-05-03T03:43:16.702Z,41.80
2019-05-03T03:45:45.250Z,41.90
2019-05-03T03:48:09.075Z,42.00
2019-05-03T03:50:36.093Z,42.00
2019-05-03T03:53:01.438Z,42.00
2019-05-03T03:55:28.365Z,42.00
2019-05-03T03:57:55.649Z,42.00
2019-05-03T04:00:20.719Z,41.90
2019-05-03T04:02:46.890Z,41.90
2019-05-03T04:05:15.717Z,41.70
2019-05-03T04:07:39.247Z,42.50
2019-05-03T04:10:05.816Z,41.80
2019-05-03T04:12:31.593Z,41.70
2019-05-03T04:14:57.743Z,41.80
2019-05-03T04:17:26.160Z,41.80
2019-05-03T04:19:50.102Z,41.70
2019-05-03T04:22:16.628Z,41.80
2019-05-03T04:24:42.475Z,41.70
2019-05-03T04:27:18.682Z,41.70
2019-05-03T04:29:35.626Z,41.60
2019-05-03T04:32:01.016Z,41.70
2019-05-03T04:34:27.178Z,41.50
2019-05-03T04:36:55.402Z,41.60
2019-05-03T04:39:20.371Z,41.70
2019-05-03T04:41:45.742Z,41.60
2019-05-03T04:44:11.896Z,41.50
2019-05-03T04:46:38.063Z,41.70
2019-05-03T04:49:05.732Z,41.60
2019-05-03T04:51:31.175Z,41.60
2019-05-03T04:53:57.349Z,41.50
2019-05-03T04:56:25.927Z,41.50
2019-05-03T04:58:49.694Z,41.60
2019-05-03T05:01:16.031Z,41.40
2019-05-03T05:03:42.061Z,41.40
2019-05-03T05:06:08.228Z,41.60
2019-05-03T05:08:35.799Z,41.40
2019-05-03T05:11:05.840Z,41.40
2019-05-03T05:13:29.429Z,41.60
2019-05-03T05:15:55.593Z,41.50
2019-05-03T05:18:21.750Z,41.30
2019-05-03T05:20:47.933Z,41.30
2019-05-03T05:23:14.732Z,41.40
2019-05-03T05:25:40.284Z,41.30
2019-05-03T05:28:06.434Z,41.20
2019-05-03T05:30:32.606Z,41.30
2019-05-03T05:32:58.772Z,41.40
2019-05-03T05:35:24.941Z,41.20
2019-05-03T05:37:51.097Z,41.20
2019-05-03T05:40:17.272Z,41.10
2019-05-03T05:42:45.269Z,41.10
2019-05-03T05:45:09.641Z,41.20
2019-05-03T05:47:35.797Z,41.20
2019-05-03T05:50:01.949Z,41.10
2019-05-03T05:52:28.122Z,41.30
2019-05-03T05:54:55.312Z,41.30
2019-05-03T05:57:20.466Z,41.20
2019-05-03T05:59:46.614Z,41.10
2019-05-03T06:02:14.943Z,40.90
2019-05-03T06:04:38.969Z,41.20
2019-05-03T06:07:05.137Z,41.20
2019-05-03T06:09:31.285Z,41.10
2019-05-03T06:11:57.444Z,41.10
2019-05-03T06:14:24.498Z,41.80
2019-05-03T06:16:49.805Z,40.90
2019-05-03T06:19:15.961Z,41.00
2019-05-03T06:21:42.120Z,40.90
2019-05-03T06:24:08.267Z,41.00
2019-05-03T06:26:34.778Z,40.90
2019-05-03T06:29:00.620Z,41.00
2019-05-03T06:31:26.783Z,40.80
2019-05-03T06:33:52.933Z,40.80
2019-05-03T06:36:19.102Z,40.70
2019-05-03T06:38:45.253Z,40.70
2019-05-03T06:41:11.421Z,40.90
2019-05-03T06:43:39.641Z,40.90
2019-05-03T06:46:05.364Z,41.00
2019-05-03T06:48:31.995Z,40.70
2019-05-03T06:51:00.307Z,40.80
2019-05-03T06:53:22.355Z,40.70
2019-05-03T06:55:48.725Z,40.80
2019-05-03T06:58:16.491Z,40.60
2019-05-03T07:00:40.895Z,40.60
2019-05-03T07:03:07.060Z,40.70
2019-05-03T07:05:35.353Z,40.60
2019-05-03T07:07:59.402Z,40.80
2019-05-03T07:10:25.555Z,40.70
2019-05-03T07:12:51.745Z,40.60
2019-05-03T07:15:17.913Z,40.70
2019-05-03T07:17:45.060Z,40.80
2019-05-03T07:20:11.028Z,40.60
2019-05-03T07:22:37.173Z,40.50
2019-05-03T07:25:04.666Z,40.60
2019-05-03T07:27:29.505Z,40.60
2019-05-03T07:29:55.700Z,40.50
2019-05-03T07:32:21.856Z,40.50
2019-05-03T07:34:48.796Z,40.60
2019-05-03T07:37:14.945Z,40.60
2019-05-03T07:39:41.110Z,40.50
2019-05-03T07:42:07.290Z,40.50
2019-05-03T07:44:34.837Z,40.50
2019-05-03T07:46:59.649Z,40.60
2019-05-03T07:49:25.844Z,40.60
2019-05-03T07:51:51.989Z,40.40
2019-05-03T07:54:18.161Z,40.50
2019-05-03T07:56:44.650Z,40.40
2019-05-03T07:59:10.521Z,40.50
2019-05-03T08:01:36.676Z,40.60
2019-05-03T08:04:02.852Z,40.50
2019-05-03T08:06:28.996Z,40.50
2019-05-03T08:08:55.152Z,40.30
2019-05-03T08:11:21.321Z,40.40
2019-05-03T08:13:47.482Z,40.20
2019-05-03T08:16:15.836Z,40.10
2019-05-03T08:18:40.602Z,40.00
2019-05-03T08:21:07.526Z,39.90
2019-05-03T08:23:35.242Z,39.90
2019-05-03T08:25:59.896Z,40.00
2019-05-03T08:28:26.046Z,39.90
2019-05-03T08:30:54.276Z,39.90
2019-05-03T08:33:18.427Z,39.70
2019-05-03T08:35:44.852Z,39.70
2019-05-03T08:38:10.785Z,39.50
2019-05-03T08:40:36.981Z,39.30
2019-05-03T08:43:05.031Z,39.10
2019-05-03T08:45:29.352Z,39.20
2019-05-03T08:47:55.497Z,39.40
2019-05-03T08:50:21.839Z,39.30
2019-05-03T08:52:47.881Z,39.50
2019-05-03T08:55:15.893Z,39.30
2019-05-03T08:57:40.245Z,39.30
2019-05-03T09:00:07.183Z,38.80
2019-05-03T09:02:34.576Z,38.80
2019-05-03T09:04:59.689Z,39.30
2019-05-03T09:07:25.875Z,38.90
2019-05-03T09:09:52.046Z,38.80
2019-05-03T09:12:18.198Z,38.70
2019-05-03T09:14:47.989Z,38.90
2019-05-03T09:17:10.552Z,38.70
2019-05-03T09:19:36.751Z,38.90
2019-05-03T09:22:05.851Z,38.80
2019-05-03T09:24:29.101Z,39.30
2019-05-03T09:26:55.666Z,38.80
2019-05-03T09:29:21.461Z,38.70
2019-05-03T09:31:47.624Z,38.70
2019-05-03T09:34:14.766Z,38.40
2019-05-03T09:36:39.978Z,38.20
2019-05-03T09:39:06.135Z,38.40
2019-05-03T09:41:34.601Z,38.10
2019-05-03T09:43:59.258Z,37.90
2019-05-03T09:46:26.410Z,37.80
2019-05-03T09:48:51.654Z,38.00
2019-05-03T09:51:17.821Z,38.00
2019-05-03T09:53:44.668Z,38.10
2019-05-03T09:56:10.177Z,37.90
2019-05-03T09:58:38.151Z,38.00
2019-05-03T10:01:05.283Z,38.20
2019-05-03T10:03:29.496Z,37.80
2019-05-03T10:05:55.652Z,37.70
2019-05-03T10:08:21.806Z,37.90
2019-05-03T10:10:47.965Z,37.90
2019-05-03T10:13:22.998Z,37.90
2019-05-03T10:15:40.358Z,38.00
2019-05-03T10:18:10.716Z,38.00
2019-05-03T10:20:34.773Z,37.70
2019-05-03T10:22:58.968Z,37.60
2019-05-03T10:25:25.126Z,37.60
2019-05-03T10:27:51.319Z,37.60
2019-05-03T10:30:17.476Z,37.30
2019-05-03T10:32:44.985Z,37.80
2019-05-03T10:35:09.840Z,38.10
2019-05-03T10:37:36.069Z,37.80
2019-05-03T10:40:05.137Z,37.50
2019-05-03T10:42:28.412Z,37.40
2019-05-03T10:44:55.533Z,37.50
2019-05-03T10:47:20.758Z,37.40
2019-05-03T10:49:46.913Z,37.10
2019-05-03T10:52:14.926Z,37.20
2019-05-03T10:54:39.269Z,37.30
2019-05-03T10:57:05.447Z,37.20
2019-05-03T10:59:31.608Z,37.00
2019-05-03T11:01:57.767Z,37.50
2019-05-03T11:04:23.926Z,37.20
2019-05-03T11:06:50.076Z,37.30
2019-05-03T11:09:16.230Z,37.40
2019-05-03T11:11:45.042Z,37.30
2019-05-03T11:14:08.592Z,37.20
2019-05-03T11:16:35.340Z,37.20
2019-05-03T11:19:01.008Z,36.60
2019-05-03T11:21:28.884Z,37.20
2019-05-03T11:23:54.559Z,36.60
2019-05-03T11:26:20.324Z,36.60
2019-05-03T11:28:46.488Z,36.80
2019-05-03T11:31:12.644Z,36.70
2019-05-03T11:33:38.887Z,36.70
2019-05-03T11:36:05.063Z,36.60
2019-05-03T11:38:31.233Z,36.50
2019-05-03T11:40:57.380Z,36.60
2019-05-03T11:43:24.746Z,36.70
2019-05-03T11:45:49.729Z,36.20
2019-05-03T11:48:15.884Z,36.80
2019-05-03T11:50:42.069Z,36.30
2019-05-03T11:53:08.993Z,36.90
2019-05-03T11:55:35.376Z,36.80
2019-05-03T11:58:01.363Z,36.50
2019-05-03T12:00:27.540Z,36.20
2019-05-03T12:02:55.465Z,36.40
2019-05-03T12:05:19.924Z,35.50
2019-05-03T12:07:46.096Z,36.10
2019-05-03T12:10:20.678Z,36.10
2019-05-03T12:12:38.516Z,36.40
2019-05-03T12:15:04.700Z,35.80
2019-05-03T12:17:31.180Z,36.00
2019-05-03T12:19:58.286Z,36.20
2019-05-03T12:22:25.814Z,36.00
2019-05-03T12:24:49.906Z,36.20
2019-05-03T12:27:15.681Z,36.20
2019-05-03T12:29:41.857Z,36.20
2019-05-03T12:32:08.003Z,36.10
2019-05-03T12:34:35.250Z,36.00
2019-05-03T12:37:00.395Z,36.80
2019-05-03T12:39:30.395Z,35.90
2019-05-03T12:41:54.886Z,36.20
2019-05-03T12:44:18.957Z,36.00
2019-05-03T12:46:45.135Z,35.50
2019-05-03T12:49:12.056Z,35.70
2019-05-03T12:51:38.224Z,35.70
2019-05-03T12:54:04.879Z,35.60
2019-05-03T12:56:32.667Z,35.80
2019-05-03T12:58:56.864Z,35.60
2019-05-03T13:01:24.961Z,35.80
2019-05-03T13:03:49.217Z,35.60
2019-05-03T13:06:15.369Z,35.90
2019-05-03T13:08:41.530Z,35.60
2019-05-03T13:11:07.858Z,35.40
2019-05-03T13:13:35.873Z,35.80
2019-05-03T13:16:00.474Z,35.50
2019-05-03T13:18:26.641Z,35.10
2019-05-03T13:20:52.806Z,35.50
2019-05-03T13:23:18.962Z,35.60
2019-05-03T13:25:45.121Z,35.50
2019-05-03T13:28:11.271Z,35.60
2019-05-03T13:30:37.442Z,34.90
2019-05-03T13:33:05.660Z,34.90
2019-05-03T13:35:29.836Z,35.00
2019-05-03T13:37:56.046Z,34.90
2019-05-03T13:40:22.188Z,34.60
2019-05-03T13:42:57.759Z,35.10
2019-05-03T13:45:14.572Z,34.60
2019-05-03T13:47:41.490Z,34.50
2019-05-03T13:50:07.668Z,34.40
2019-05-03T13:52:34.622Z,34.70
2019-05-03T13:55:00.046Z,34.60
2019-05-03T13:57:26.222Z,34.40
2019-05-03T13:59:52.383Z,34.90
2019-05-03T14:02:19.318Z,34.40
2019-05-03T14:04:52.384Z,34.70
2019-05-03T14:07:10.957Z,34.70
2019-05-03T14:09:37.172Z,35.00
2019-05-03T14:12:05.617Z,34.40
2019-05-03T14:14:29.524Z,34.40
2019-05-03T14:16:55.678Z,34.30
2019-05-03T14:19:21.866Z,34.70
2019-05-03T14:21:48.032Z,34.80
2019-05-03T14:24:15.766Z,34.20
2019-05-03T14:26:40.400Z,34.60
2019-05-03T14:29:07.343Z,34.20
2019-05-03T14:31:34.634Z,34.20
2019-05-03T14:33:59.711Z,33.80
2019-05-03T14:36:25.857Z,34.30
2019-05-03T14:38:52.019Z,34.10
2019-05-03T14:41:18.184Z,34.20
2019-05-03T14:43:44.392Z,34.00
2019-05-03T14:46:11.310Z,34.20
2019-05-03T14:48:37.465Z,34.10
2019-05-03T14:51:05.499Z,33.80
2019-05-03T14:53:29.843Z,34.00
2019-05-03T14:55:56.164Z,33.50
2019-05-03T14:58:22.322Z,33.30
2019-05-03T15:00:48.492Z,33.80
2019-05-03T15:03:15.080Z,33.30
2019-05-03T15:05:40.851Z,33.60
2019-05-03T15:08:07.771Z,33.40
2019-05-03T15:10:35.027Z,33.40
2019-05-03T15:13:00.189Z,33.70
2019-05-03T15:15:28.730Z,33.10
2019-05-03T15:17:52.587Z,33.40
2019-05-03T15:20:18.756Z,33.30
2019-05-03T15:22:45.446Z,32.90
2019-05-03T15:25:11.132Z,33.40
2019-05-03T15:27:37.289Z,33.20
2019-05-03T15:30:04.859Z,33.10
2019-05-03T15:32:30.422Z,33.10
2019-05-03T15:34:56.586Z,33.00
2019-05-03T15:37:22.738Z,32.90
2019-05-03T15:39:48.915Z,33.20
2019-05-03T15:42:15.075Z,32.70
2019-05-03T15:44:41.235Z,32.80
2019-05-03T15:47:09.898Z,32.80
2019-05-03T15:49:35.571Z,32.70
2019-05-03T15:51:59.773Z,32.70
2019-05-03T15:54:25.931Z,32.60
2019-05-03T15:56:52.109Z,33.20
2019-05-03T15:59:18.289Z,32.80
2019-05-03T16:01:44.461Z,32.70
2019-05-03T16:04:11.384Z,32.90
2019-05-03T16:06:37.565Z,32.90
2019-05-03T16:09:04.553Z,32.70
2019-05-03T16:11:29.937Z,32.80
2019-05-03T16:13:56.095Z,33.50
2019-05-03T16:16:22.259Z,32.70
2019-05-03T16:18:48.408Z,32.40
2019-05-03T16:21:14.769Z,32.70
2019-05-03T16:23:40.746Z,32.40
2019-05-03T16:26:06.901Z,32.80
2019-05-03T16:28:33.049Z,32.60
2019-05-03T16:30:59.228Z,32.40
2019-05-03T16:33:28.028Z,32.60
2019-05-03T16:35:51.572Z,32.60
2019-05-03T16:38:17.725Z,32.30
2019-05-03T16:40:45.148Z,32.50
2019-05-03T16:43:10.074Z,32.90
2019-05-03T16:45:36.237Z,32.60
2019-05-03T16:48:04.353Z,32.70
2019-05-03T16:50:28.597Z,32.80
2019-05-03T16:52:55.046Z,32.60
2019-05-03T16:55:20.941Z,32.80
2019-05-03T16:57:47.093Z,32.80
2019-05-03T17:00:15.368Z,33.50
2019-05-03T17:02:39.452Z,32.50
2019-05-03T17:05:07.497Z,32.50
2019-05-03T17:07:31.822Z,32.30
2019-05-03T17:09:58.023Z,33.10
2019-05-03T17:12:25.762Z,32.80
2019-05-03T17:14:51.129Z,32.70
2019-05-03T17:17:17.308Z,32.60
2019-05-03T17:19:44.680Z,32.50
2019-05-03T17:22:09.650Z,32.60
2019-05-03T17:24:35.853Z,32.50
2019-05-03T17:27:02.010Z,32.50
2019-05-03T17:29:28.192Z,32.60
2019-05-03T17:31:55.206Z,32.50
2019-05-03T17:34:21.382Z,32.50
2019-05-03T17:36:47.536Z,32.50
2019-05-03T17:39:15.053Z,32.40
2019-05-03T17:41:39.903Z,32.50
2019-05-03T17:44:06.053Z,32.30
2019-05-03T17:46:32.222Z,32.60
2019-05-03T17:48:58.377Z,32.40
2019-05-03T17:51:25.462Z,32.40
2019-05-03T17:53:50.716Z,32.80
2019-05-03T17:56:17.029Z,32.80
2019-05-03T17:58:44.345Z,32.60
2019-05-03T18:01:09.394Z,32.80
2019-05-03T18:03:35.548Z,32.70
2019-05-03T18:06:01.699Z,32.40
2019-05-03T18:08:27.866Z,32.60
2019-05-03T18:10:55.039Z,32.50
2019-05-03T18:13:20.221Z,32.60
2019-05-03T18:15:46.369Z,32.80
2019-05-03T18:18:12.524Z,32.70
2019-05-03T18:20:38.683Z,32.50
2019-05-03T18:23:05.132Z,32.70
2019-05-03T18:25:31.050Z,32.50
2019-05-03T18:27:57.206Z,32.80
2019-05-03T18:30:23.379Z,32.80
2019-05-03T18:32:49.531Z,32.40
2019-05-03T18:35:15.692Z,32.60
2019-05-03T18:37:41.840Z,32.40
2019-05-03T18:40:07.989Z,32.20
2019-05-03T18:42:35.246Z,32.60
2019-05-03T18:45:01.512Z,32.30
2019-05-03T18:47:27.689Z,32.30
2019-05-03T18:49:54.974Z,32.50
2019-05-03T18:52:20.068Z,32.50
2019-05-03T18:54:46.217Z,32.40
2019-05-03T18:57:12.384Z,32.40
2019-05-03T18:59:38.543Z,32.80
2019-05-03T19:02:05.411Z,32.60
2019-05-03T19:04:34.856Z,32.30
2019-05-03T19:07:04.381Z,32.50
2019-05-03T19:09:25.009Z,32.70
2019-05-03T19:11:49.543Z,32.50
2019-05-03T19:14:15.705Z,32.60
2019-05-03T19:16:41.855Z,32.80
2019-05-03T19:19:08.004Z,32.80
2019-05-03T19:21:35.083Z,32.80
2019-05-03T19:24:01.115Z,32.80
2019-05-03T19:26:27.278Z,33.00
2019-05-03T19:28:54.968Z,32.70
2019-05-03T19:31:19.631Z,32.80
2019-05-03T19:33:45.794Z,32.70
2019-05-03T19:36:11.958Z,32.70
2019-05-03T19:38:38.132Z,32.70
2019-05-03T19:41:04.484Z,32.80
2019-05-03T19:43:30.643Z,33.00
2019-05-03T19:45:56.795Z,32.90
2019-05-03T19:48:22.966Z,32.70
2019-05-03T19:50:49.109Z,32.90
2019-05-03T19:53:16.052Z,33.00
2019-05-03T19:55:42.207Z,33.00
2019-05-03T19:58:08.366Z,33.10
2019-05-03T20:00:34.841Z,33.10
2019-05-03T20:03:00.730Z,32.90
2019-05-03T20:05:26.883Z,33.00
2019-05-03T20:07:54.250Z,33.00
2019-05-03T20:10:19.237Z,32.90
2019-05-03T20:12:45.388Z,33.00
2019-05-03T20:15:11.539Z,33.10
2019-05-03T20:17:37.709Z,33.00
2019-05-03T20:20:04.745Z,33.20
2019-05-03T20:22:30.082Z,33.10
2019-05-03T20:24:56.237Z,33.00
2019-05-03T20:27:24.370Z,33.10
2019-05-03T20:29:48.593Z,33.00
2019-05-03T20:32:15.962Z,32.90
2019-05-03T20:34:41.721Z,33.30
2019-05-03T20:37:07.897Z,33.30
2019-05-03T20:39:34.801Z,33.40
2019-05-03T20:42:00.260Z,33.40
2019-05-03T20:44:26.424Z,33.20
2019-05-03T20:46:52.585Z,33.40
2019-05-03T20:49:19.515Z,33.30
2019-05-03T20:51:49.636Z,33.20
2019-05-03T20:54:11.876Z,33.40
2019-05-03T20:56:38.036Z,33.40
2019-05-03T20:59:05.460Z,33.50
2019-05-03T21:01:30.444Z,33.60
2019-05-03T21:03:56.611Z,33.70
2019-05-03T21:06:34.512Z,33.70
2019-05-03T21:08:52.364Z,33.60
2019-05-03T21:11:15.167Z,33.50
2019-05-03T21:13:42.486Z,33.50
2019-05-03T21:16:07.552Z,33.60
2019-05-03T21:18:34.505Z,33.80
2019-05-03T21:20:59.924Z,33.70
2019-05-03T21:23:26.073Z,33.70
2019-05-03T21:26:08.317Z,33.80
2019-05-03T21:28:18.431Z,33.80
2019-05-03T21:30:45.441Z,33.90
2019-05-03T21:33:10.810Z,34.60
2019-05-03T21:35:41.471Z,34.00
2019-05-03T21:38:03.182Z,34.70
2019-05-03T21:40:29.360Z,34.00
2019-05-03T21:42:55.535Z,34.00
2019-05-03T21:45:21.699Z,34.10
2019-05-03T21:47:47.851Z,34.20
2019-05-03T21:50:14.576Z,34.20
2019-05-03T21:52:40.202Z,34.10
2019-05-03T21:55:06.365Z,34.10
2019-05-03T21:57:34.105Z,34.20
2019-05-03T21:59:58.738Z,34.30
2019-05-03T22:02:24.889Z,34.30
2019-05-03T22:04:51.043Z,34.30
2019-05-03T22:07:17.964Z,34.50
2019-05-03T22:09:45.292Z,34.40
2019-05-03T22:12:10.316Z,34.30
2019-05-03T22:14:36.487Z,34.40
2019-05-03T22:17:04.504Z,34.50
2019-05-03T22:19:28.834Z,34.40
2019-05-03T22:21:56.040Z,34.50
2019-05-03T22:24:22.194Z,34.50
2019-05-03T22:26:48.364Z,34.60
2019-05-03T22:29:17.129Z,34.60
2019-05-03T22:31:40.710Z,34.60
2019-05-03T22:34:06.856Z,34.60
2019-05-03T22:36:34.972Z,34.60
2019-05-03T22:38:59.209Z,34.60
2019-05-03T22:41:25.382Z,34.80
2019-05-03T22:43:51.536Z,34.70
2019-05-03T22:46:17.687Z,34.80
2019-05-03T22:48:44.958Z,35.00
2019-05-03T22:51:10.053Z,34.90
2019-05-03T22:53:36.202Z,34.90
2019-05-03T22:56:02.369Z,34.90
2019-05-03T22:58:28.520Z,35.10
2019-05-03T23:00:55.061Z,35.10
2019-05-03T23:03:20.845Z,35.00
2019-05-03T23:05:47.003Z,35.00
2019-05-03T23:08:14.798Z,34.90
2019-05-03T23:10:39.345Z,35.20
2019-05-03T23:13:05.487Z,35.00
2019-05-03T23:15:31.640Z,35.20
2019-05-03T23:17:57.814Z,35.30
2019-05-03T23:20:25.432Z,35.10
2019-05-03T23:22:50.152Z,35.10
2019-05-03T23:25:16.304Z,35.10
2019-05-03T23:27:44.388Z,35.20
2019-05-03T23:30:08.655Z,35.20
2019-05-03T23:32:35.160Z,35.20
2019-05-03T23:35:01.779Z,35.20
2019-05-03T23:37:27.960Z,35.20
2019-05-03T23:39:55.131Z,35.20
2019-05-03T23:42:20.304Z,35.30
2019-05-03T23:44:46.472Z,35.40
2019-05-03T23:47:14.448Z,35.40
2019-05-03T23:49:38.826Z,35.30
2019-05-03T23:52:04.980Z,35.30
2019-05-03T23:54:31.134Z,35.30
2019-05-03T23:56:57.296Z,35.20
2019-05-03T23:59:23.460Z,35.20
